Time;durP1;ratioP1;P1;durP2;ratioP2;P2;SDS_P1;SDS_P2;PMS_P1;PMS_P2;Temp;Humidity;BMP_temperature;BMP_pressure;BME280_temperature;BME280_humidity;BME280_pressure;Samples;Min_cycle;Max_cycle;Signal;HPM_P1;HPM_P2
2021/08/07 00:01:27;;;;;;;245.67;235.47;;;;;;;;;;5013033;28;20460;-64
2021/08/07 00:03:54;;;;;;;248.73;238.20;;;;;;;;;;5013155;28;20454;-63
2021/08/07 00:06:22;;;;;;;248.27;238.17;;;;;;;;;;5013103;28;20982;-63
2021/08/07 00:08:49;;;;;;;246.67;236.77;;;;;;;;;;5012953;28;20446;-63
2021/08/07 00:11:16;;;;;;;248.27;238.27;;;;;;;;;;5012559;28;20489;-63
2021/08/07 00:13:43;;;;;;;253.87;243.47;;;;;;;;;;5012690;28;20978;-63
2021/08/07 00:16:10;;;;;;;252.93;242.60;;;;;;;;;;5013081;28;20456;-63
2021/08/07 00:18:39;;;;;;;240.33;229.97;;;;;;;;;;5012742;28;20458;-63
2021/08/07 00:21:07;;;;;;;248.20;237.97;;;;;;;;;;5012825;28;20473;-63
2021/08/07 00:23:34;;;;;;;234.47;224.73;;;;;;;;;;5012388;28;20485;-63
2021/08/07 00:26:01;;;;;;;243.70;233.43;;;;;;;;;;5012920;28;20453;-63
2021/08/07 00:28:28;;;;;;;242.57;232.77;;;;;;;;;;5012610;28;20458;-62
2021/08/07 00:30:55;;;;;;;236.67;227.27;;;;;;;;;;5011548;28;20473;-63
2021/08/07 00:33:22;;;;;;;241.93;232.57;;;;;;;;;;5012166;28;20441;-63
2021/08/07 00:35:51;;;;;;;237.63;228.43;;;;;;;;;;5012013;28;20960;-62
2021/08/07 00:38:18;;;;;;;213.90;205.30;;;;;;;;;;5012521;28;20454;-63
2021/08/07 00:40:45;;;;;;;215.30;206.47;;;;;;;;;;5012346;28;20484;-61
2021/08/07 00:43:12;;;;;;;213.53;204.90;;;;;;;;;;5012743;28;20485;-63
2021/08/07 00:45:40;;;;;;;205.70;197.40;;;;;;;;;;5012237;28;20831;-62
2021/08/07 00:48:08;;;;;;;201.60;193.60;;;;;;;;;;5010825;28;20817;-61
2021/08/07 00:50:35;;;;;;;192.83;185.03;;;;;;;;;;5012134;28;20466;-61
2021/08/07 00:53:04;;;;;;;207.23;198.80;;;;;;;;;;5011576;28;20540;-64
2021/08/07 00:55:32;;;;;;;209.10;200.73;;;;;;;;;;4997339;28;20457;-61
2021/08/07 00:57:59;;;;;;;214.37;205.87;;;;;;;;;;5011919;28;20983;-61
2021/08/07 01:00:26;;;;;;;207.27;198.87;;;;;;;;;;5011880;28;21000;-61
2021/08/07 01:02:57;;;;;;;193.57;185.47;;;;;;;;;;5012555;28;20488;-60
2021/08/07 01:05:26;;;;;;;185.20;177.80;;;;;;;;;;5011660;28;20461;-63
2021/08/07 01:07:55;;;;;;;179.10;171.70;;;;;;;;;;5012208;28;20453;-61
2021/08/07 01:10:28;;;;;;;180.30;173.17;;;;;;;;;;5011912;28;20489;-61
2021/08/07 01:12:58;;;;;;;182.80;175.33;;;;;;;;;;5012002;28;20453;-61
2021/08/07 01:15:28;;;;;;;182.47;175.40;;;;;;;;;;5012089;28;20454;-61
2021/08/07 01:17:55;;;;;;;179.47;172.07;;;;;;;;;;5011215;28;20460;-61
2021/08/07 01:20:25;;;;;;;176.23;169.13;;;;;;;;;;5011726;28;20477;-61
2021/08/07 01:22:58;;;;;;;178.53;171.23;;;;;;;;;;5011942;28;20481;-61
2021/08/07 01:25:31;;;;;;;171.57;164.57;;;;;;;;;;5011946;28;20440;-62
2021/08/07 01:27:59;;;;;;;179.60;172.50;;;;;;;;;;5011880;28;20460;-61
2021/08/07 01:30:26;;;;;;;177.37;170.37;;;;;;;;;;5011302;28;20476;-61
2021/08/07 01:32:55;;;;;;;184.67;177.47;;;;;;;;;;5011664;28;20449;-62
2021/08/07 01:35:22;;;;;;;187.03;179.63;;;;;;;;;;5011593;28;20545;-63
2021/08/07 01:37:50;;;;;;;178.70;171.80;;;;;;;;;;4992334;28;20504;-64
2021/08/07 01:40:17;;;;;;;171.07;164.07;;;;;;;;;;5008113;28;20480;-62
2021/08/07 01:42:44;;;;;;;162.23;155.60;;;;;;;;;;5013152;28;20493;-62
2021/08/07 01:45:13;;;;;;;169.83;162.63;;;;;;;;;;5013789;28;20441;-61
2021/08/07 01:47:42;;;;;;;165.40;158.80;;;;;;;;;;5012503;28;20453;-63
2021/08/07 01:50:13;;;;;;;167.77;160.67;;;;;;;;;;5011514;28;20473;-66
2021/08/07 01:52:42;;;;;;;176.17;169.27;;;;;;;;;;5011366;28;20442;-62
2021/08/07 01:55:13;;;;;;;169.67;162.87;;;;;;;;;;5012481;28;20452;-60
2021/08/07 01:57:42;;;;;;;171.93;165.13;;;;;;;;;;5011761;28;20455;-63
2021/08/07 02:00:12;;;;;;;170.10;163.50;;;;;;;;;;5011780;28;20469;-61
2021/08/07 02:02:41;;;;;;;175.83;168.60;;;;;;;;;;5011159;28;20491;-62
2021/08/07 02:05:09;;;;;;;187.80;180.30;;;;;;;;;;5014878;28;20453;-63
2021/08/07 02:07:36;;;;;;;199.70;192.00;;;;;;;;;;5015164;28;20998;-65
2021/08/07 02:10:05;;;;;;;199.33;191.20;;;;;;;;;;5028835;22;20513;-68
2021/08/07 02:12:32;;;;;;;204.70;196.53;;;;;;;;;;5005112;28;20458;-69
2021/08/07 02:15:00;;;;;;;205.50;197.23;;;;;;;;;;5006595;28;20454;-68
2021/08/07 02:17:27;;;;;;;204.10;195.97;;;;;;;;;;4997832;28;20460;-68
2021/08/07 02:19:56;;;;;;;195.70;187.70;;;;;;;;;;4997932;28;20466;-70
2021/08/07 02:22:23;;;;;;;206.03;197.97;;;;;;;;;;4990001;28;20487;-67
2021/08/07 02:24:50;;;;;;;201.83;193.73;;;;;;;;;;4990423;28;20455;-69
2021/08/07 02:27:18;;;;;;;201.07;193.23;;;;;;;;;;4994189;28;20451;-68
2021/08/07 02:29:45;;;;;;;198.17;190.27;;;;;;;;;;4982044;28;20454;-69
2021/08/07 02:32:12;;;;;;;201.77;193.60;;;;;;;;;;4996974;28;20457;-68
2021/08/07 02:34:40;;;;;;;199.20;191.40;;;;;;;;;;4997554;28;20489;-68
2021/08/07 02:37:09;;;;;;;201.03;193.03;;;;;;;;;;4998527;28;20537;-68
2021/08/07 02:39:36;;;;;;;192.80;185.20;;;;;;;;;;4998641;28;20472;-68
2021/08/07 02:42:03;;;;;;;194.57;186.87;;;;;;;;;;4998129;28;20461;-69
2021/08/07 02:44:30;;;;;;;200.40;192.53;;;;;;;;;;4999353;28;20509;-68
2021/08/07 02:46:58;;;;;;;194.67;186.87;;;;;;;;;;4996788;28;20465;-69
2021/08/07 02:49:25;;;;;;;178.13;170.97;;;;;;;;;;4993392;28;20458;-68
2021/08/07 02:51:53;;;;;;;169.93;162.83;;;;;;;;;;4996312;28;20497;-68
2021/08/07 02:54:22;;;;;;;157.10;150.47;;;;;;;;;;4996112;28;20456;-69
2021/08/07 02:56:49;;;;;;;160.60;153.90;;;;;;;;;;4996121;28;20451;-68
2021/08/07 02:59:16;;;;;;;163.57;156.77;;;;;;;;;;4996221;28;20469;-68
2021/08/07 03:01:43;;;;;;;164.10;157.37;;;;;;;;;;4994842;28;20474;-68
2021/08/07 03:04:10;;;;;;;171.00;163.93;;;;;;;;;;4995944;28;20488;-68
2021/08/07 03:06:37;;;;;;;154.90;148.30;;;;;;;;;;4996299;28;20464;-68
2021/08/07 03:09:04;;;;;;;156.93;150.63;;;;;;;;;;4996025;28;20468;-68
2021/08/07 03:11:33;;;;;;;162.50;155.80;;;;;;;;;;4980208;28;20479;-69
2021/08/07 03:14:00;;;;;;;145.90;139.60;;;;;;;;;;4976551;28;20444;-69
2021/08/07 03:16:28;;;;;;;154.97;148.67;;;;;;;;;;4975954;28;20827;-68
2021/08/07 03:18:55;;;;;;;144.77;138.57;;;;;;;;;;4982729;28;20480;-68
2021/08/07 03:21:22;;;;;;;151.90;145.43;;;;;;;;;;4982859;28;20471;-69
2021/08/07 03:23:49;;;;;;;138.20;132.50;;;;;;;;;;4986464;28;20490;-69
2021/08/07 03:26:16;;;;;;;132.60;127.10;;;;;;;;;;4996333;28;20442;-69
2021/08/07 03:28:45;;;;;;;127.60;122.30;;;;;;;;;;4994826;28;20803;-68
2021/08/07 03:31:12;;;;;;;142.57;136.30;;;;;;;;;;4995076;28;21222;-68
2021/08/07 03:33:39;;;;;;;141.03;135.13;;;;;;;;;;4994731;28;20446;-68
2021/08/07 03:36:06;;;;;;;144.97;139.07;;;;;;;;;;4990266;28;20447;-68
2021/08/07 03:38:33;;;;;;;136.80;130.70;;;;;;;;;;4995196;28;20446;-68
2021/08/07 03:41:00;;;;;;;136.17;130.60;;;;;;;;;;4994879;28;20466;-69
2021/08/07 03:43:28;;;;;;;126.07;120.53;;;;;;;;;;4995307;28;20482;-69
2021/08/07 03:45:56;;;;;;;126.20;120.80;;;;;;;;;;4993474;28;20502;-69
2021/08/07 03:48:23;;;;;;;126.57;120.97;;;;;;;;;;4995703;28;20447;-68
2021/08/07 03:50:50;;;;;;;136.13;130.03;;;;;;;;;;4994818;28;20478;-68
2021/08/07 03:53:17;;;;;;;141.33;134.00;;;;;;;;;;4995518;28;20455;-68
2021/08/07 03:55:44;;;;;;;146.97;140.67;;;;;;;;;;4994674;28;20455;-69
2021/08/07 03:58:12;;;;;;;150.57;144.13;;;;;;;;;;4994761;28;21128;-68
2021/08/07 04:00:39;;;;;;;142.27;135.87;;;;;;;;;;4996547;28;20502;-69
2021/08/07 04:03:07;;;;;;;135.50;129.60;;;;;;;;;;4995616;28;20488;-68
2021/08/07 04:05:35;;;;;;;131.70;126.10;;;;;;;;;;4995890;28;20449;-68
2021/08/07 04:08:02;;;;;;;131.33;125.50;;;;;;;;;;4996778;28;20482;-68
2021/08/07 04:10:30;;;;;;;127.13;121.57;;;;;;;;;;4994022;28;20478;-68
2021/08/07 04:12:57;;;;;;;125.43;120.03;;;;;;;;;;4993758;28;20447;-68
2021/08/07 04:15:24;;;;;;;119.13;113.97;;;;;;;;;;4994745;28;20458;-68
2021/08/07 04:17:51;;;;;;;117.60;112.27;;;;;;;;;;4994991;28;20942;-69
2021/08/07 04:20:20;;;;;;;113.67;108.57;;;;;;;;;;4994946;28;20470;-68
2021/08/07 04:22:47;;;;;;;109.40;104.40;;;;;;;;;;4995206;28;20953;-68
2021/08/07 04:25:14;;;;;;;107.93;103.10;;;;;;;;;;4995093;28;20446;-68
2021/08/07 04:27:41;;;;;;;111.67;106.87;;;;;;;;;;4995185;28;20450;-70
2021/08/07 04:30:09;;;;;;;108.60;103.80;;;;;;;;;;4993352;28;20470;-68
2021/08/07 04:32:37;;;;;;;108.00;103.30;;;;;;;;;;4995047;28;20455;-69
2021/08/07 04:35:04;;;;;;;113.13;108.23;;;;;;;;;;4995752;28;20541;-69
2021/08/07 04:37:33;;;;;;;99.67;94.97;;;;;;;;;;4994546;28;20447;-68
2021/08/07 04:40:00;;;;;;;104.20;99.60;;;;;;;;;;4994709;28;20470;-69
2021/08/07 04:42:27;;;;;;;103.10;98.40;;;;;;;;;;4993402;28;20461;-68
2021/08/07 04:44:54;;;;;;;99.17;94.47;;;;;;;;;;4994424;28;20999;-68
2021/08/07 04:47:21;;;;;;;100.27;95.00;;;;;;;;;;4993126;28;20490;-68
2021/08/07 04:49:48;;;;;;;100.80;96.10;;;;;;;;;;4994395;28;20466;-69
2021/08/07 04:52:15;;;;;;;99.67;95.10;;;;;;;;;;4992593;28;20826;-68
2021/08/07 04:54:44;;;;;;;93.87;89.37;;;;;;;;;;4994153;28;20462;-69
2021/08/07 04:57:11;;;;;;;90.63;86.23;;;;;;;;;;4993030;28;20938;-68
2021/08/07 04:59:38;;;;;;;96.57;92.00;;;;;;;;;;4993521;28;20450;-69
2021/08/07 05:02:05;;;;;;;99.07;94.47;;;;;;;;;;4993249;28;20476;-68
2021/08/07 05:04:32;;;;;;;95.70;91.20;;;;;;;;;;4992907;28;20562;-69
2021/08/07 05:06:59;;;;;;;102.03;97.10;;;;;;;;;;4993212;28;20457;-68
2021/08/07 05:09:26;;;;;;;107.67;102.57;;;;;;;;;;4993414;28;20469;-68
2021/08/07 05:11:55;;;;;;;95.50;90.90;;;;;;;;;;4993347;28;20483;-68
2021/08/07 05:14:22;;;;;;;97.50;92.70;;;;;;;;;;4994892;28;20450;-68
2021/08/07 05:16:49;;;;;;;102.83;97.93;;;;;;;;;;4993785;28;20459;-68
2021/08/07 05:19:16;;;;;;;102.33;97.73;;;;;;;;;;4980399;28;20969;-68
2021/08/07 05:21:43;;;;;;;108.53;103.53;;;;;;;;;;4976538;28;20485;-69
2021/08/07 05:24:10;;;;;;;107.70;102.90;;;;;;;;;;4993393;28;21192;-68
2021/08/07 05:26:37;;;;;;;118.87;113.60;;;;;;;;;;4992947;28;20458;-68
2021/08/07 05:29:06;;;;;;;116.80;111.30;;;;;;;;;;4993698;28;20458;-67
2021/08/07 05:31:33;;;;;;;117.87;112.57;;;;;;;;;;4994533;28;20509;-68
2021/08/07 05:34:00;;;;;;;123.20;117.63;;;;;;;;;;4994584;28;20485;-68
2021/08/07 05:36:27;;;;;;;119.17;113.77;;;;;;;;;;4993617;28;20909;-68
2021/08/07 05:38:54;;;;;;;117.37;112.07;;;;;;;;;;4994728;28;20453;-67
2021/08/07 05:41:21;;;;;;;115.80;110.27;;;;;;;;;;4995936;28;20474;-68
2021/08/07 05:43:49;;;;;;;117.80;112.60;;;;;;;;;;4996051;28;20488;-68
2021/08/07 05:46:18;;;;;;;115.70;110.47;;;;;;;;;;4996039;28;20481;-68
2021/08/07 05:48:45;;;;;;;105.33;100.23;;;;;;;;;;4995026;28;20486;-68
2021/08/07 05:51:12;;;;;;;111.30;106.30;;;;;;;;;;4993776;28;20478;-67
2021/08/07 05:53:39;;;;;;;107.57;102.27;;;;;;;;;;4993373;28;20446;-68
2021/08/07 05:56:06;;;;;;;121.37;115.30;;;;;;;;;;4993453;28;20450;-67
2021/08/07 05:58:37;;;;;;;106.97;101.77;;;;;;;;;;4993104;28;20473;-67
2021/08/07 06:01:04;;;;;;;112.80;107.30;;;;;;;;;;4992076;28;20478;-68
2021/08/07 06:03:33;;;;;;;102.17;97.20;;;;;;;;;;4992296;28;20478;-67
2021/08/07 06:06:00;;;;;;;97.90;92.90;;;;;;;;;;4988962;28;20461;-67
2021/08/07 06:08:28;;;;;;;90.90;86.37;;;;;;;;;;4993811;28;20447;-67
2021/08/07 06:10:55;;;;;;;92.97;88.37;;;;;;;;;;4989813;28;20562;-67
2021/08/07 06:13:22;;;;;;;90.60;86.30;;;;;;;;;;4994228;28;20529;-67
2021/08/07 06:15:50;;;;;;;87.20;83.00;;;;;;;;;;4993136;28;20465;-67
2021/08/07 06:18:17;;;;;;;86.37;82.03;;;;;;;;;;4992167;28;20953;-67
2021/08/07 06:20:46;;;;;;;83.50;79.30;;;;;;;;;;4992209;28;20474;-67
2021/08/07 06:23:13;;;;;;;87.07;82.77;;;;;;;;;;4991340;28;20451;-68
2021/08/07 06:25:40;;;;;;;84.93;80.63;;;;;;;;;;4991870;28;20505;-68
2021/08/07 06:28:07;;;;;;;78.07;73.97;;;;;;;;;;4991495;28;20451;-67
2021/08/07 06:30:35;;;;;;;74.60;70.63;;;;;;;;;;4992289;28;20474;-68
2021/08/07 06:33:02;;;;;;;72.77;68.97;;;;;;;;;;4992743;28;20458;-67
2021/08/07 06:35:29;;;;;;;76.87;72.77;;;;;;;;;;4993310;28;20534;-67
2021/08/07 06:37:58;;;;;;;81.30;77.10;;;;;;;;;;4987309;28;20458;-67
2021/08/07 06:40:25;;;;;;;73.80;69.90;;;;;;;;;;4992730;28;20475;-67
2021/08/07 06:42:52;;;;;;;76.07;72.27;;;;;;;;;;4989385;28;20447;-67
2021/08/07 06:45:19;;;;;;;74.73;70.93;;;;;;;;;;4992616;28;20490;-68
2021/08/07 06:47:47;;;;;;;74.93;71.00;;;;;;;;;;4992612;28;20945;-67
2021/08/07 06:50:14;;;;;;;82.73;78.63;;;;;;;;;;4992813;28;20859;-67
2021/08/07 06:52:41;;;;;;;68.57;64.97;;;;;;;;;;4997093;28;20454;-68
2021/08/07 06:55:10;;;;;;;66.40;62.80;;;;;;;;;;4996602;28;20829;-67
2021/08/07 06:57:40;;;;;;;66.17;62.37;;;;;;;;;;4996524;28;20829;-68
2021/08/07 07:00:09;;;;;;;66.47;62.87;;;;;;;;;;4995801;28;20469;-68
2021/08/07 07:02:36;;;;;;;78.47;74.37;;;;;;;;;;4996122;28;20450;-68
2021/08/07 07:05:03;;;;;;;95.20;90.50;;;;;;;;;;4996291;28;20482;-68
2021/08/07 07:07:31;;;;;;;109.97;104.57;;;;;;;;;;4995744;28;20456;-67
2021/08/07 07:09:58;;;;;;;120.07;114.47;;;;;;;;;;4996309;28;20478;-68
2021/08/07 07:12:26;;;;;;;113.93;108.40;;;;;;;;;;4994631;28;20481;-68
2021/08/07 07:14:54;;;;;;;114.20;108.50;;;;;;;;;;4995839;28;20955;-68
2021/08/07 07:17:21;;;;;;;103.87;98.43;;;;;;;;;;4995841;28;20451;-67
2021/08/07 07:19:48;;;;;;;92.27;87.40;;;;;;;;;;4994338;28;20837;-68
2021/08/07 07:22:15;;;;;;;90.47;85.97;;;;;;;;;;4994878;28;20447;-68
2021/08/07 07:24:42;;;;;;;93.53;89.10;;;;;;;;;;4994075;28;20494;-68
2021/08/07 07:27:09;;;;;;;95.27;90.77;;;;;;;;;;4994527;28;20451;-68
2021/08/07 07:29:39;;;;;;;84.30;80.10;;;;;;;;;;4995492;28;20462;-68
2021/08/07 07:32:08;;;;;;;88.77;84.17;;;;;;;;;;4995037;28;20459;-68
2021/08/07 07:34:35;;;;;;;84.47;80.13;;;;;;;;;;4986718;28;20827;-68
2021/08/07 07:37:03;;;;;;;79.13;74.93;;;;;;;;;;4990719;28;20832;-68
2021/08/07 07:39:30;;;;;;;79.83;75.93;;;;;;;;;;4993896;28;20953;-68
2021/08/07 07:41:57;;;;;;;67.70;64.00;;;;;;;;;;4994289;28;20454;-68
2021/08/07 07:44:24;;;;;;;74.97;71.07;;;;;;;;;;4995220;28;20483;-69
2021/08/07 07:46:52;;;;;;;84.47;80.07;;;;;;;;;;4994607;28;20465;-68
2021/08/07 07:49:19;;;;;;;91.83;86.73;;;;;;;;;;4994502;28;20465;-67
2021/08/07 07:51:47;;;;;;;91.17;86.47;;;;;;;;;;4994085;28;20482;-68
2021/08/07 07:54:14;;;;;;;109.30;103.93;;;;;;;;;;4994631;28;20450;-68
2021/08/07 07:56:41;;;;;;;189.50;181.23;;;;;;;;;;4991282;28;20457;-68
2021/08/07 07:59:08;;;;;;;240.20;229.97;;;;;;;;;;4993595;28;20448;-67
2021/08/07 08:01:35;;;;;;;264.80;253.30;;;;;;;;;;4993911;28;20482;-68
2021/08/07 08:04:03;;;;;;;248.90;237.17;;;;;;;;;;4995215;28;20480;-67
2021/08/07 08:06:30;;;;;;;241.63;229.40;;;;;;;;;;4994402;28;20457;-68
2021/08/07 08:08:58;;;;;;;282.90;269.77;;;;;;;;;;4994705;28;20460;-68
2021/08/07 08:11:25;;;;;;;239.33;227.43;;;;;;;;;;5019926;22;20493;-68
2021/08/07 08:13:52;;;;;;;258.43;245.67;;;;;;;;;;5014758;28;20469;-67
2021/08/07 08:16:19;;;;;;;254.43;240.93;;;;;;;;;;5024897;28;20448;-67
2021/08/07 08:18:46;;;;;;;276.87;261.87;;;;;;;;;;5033391;28;20449;-67
2021/08/07 08:21:15;;;;;;;268.17;253.47;;;;;;;;;;5008222;28;20482;-68
2021/08/07 08:23:42;;;;;;;262.50;248.13;;;;;;;;;;4989153;28;20990;-67
2021/08/07 08:26:09;;;;;;;285.60;270.23;;;;;;;;;;4985014;28;20496;-67
2021/08/07 08:28:36;;;;;;;289.80;274.17;;;;;;;;;;4993461;28;20469;-67
2021/08/07 08:31:03;;;;;;;293.73;278.13;;;;;;;;;;4994177;28;20477;-67
2021/08/07 08:33:30;;;;;;;291.30;276.10;;;;;;;;;;4992681;28;20470;-68
2021/08/07 08:35:57;;;;;;;300.63;284.73;;;;;;;;;;4994288;28;20450;-67
2021/08/07 08:38:26;;;;;;;298.80;284.10;;;;;;;;;;4996378;28;20458;-67
2021/08/07 08:40:56;;;;;;;315.70;299.00;;;;;;;;;;4995810;28;20869;-68
2021/08/07 08:43:23;;;;;;;313.30;298.20;;;;;;;;;;4994429;28;20457;-68
2021/08/07 08:45:50;;;;;;;263.27;250.10;;;;;;;;;;4994719;28;20478;-67
2021/08/07 08:48:18;;;;;;;236.70;224.43;;;;;;;;;;4994259;28;20455;-67
2021/08/07 08:50:45;;;;;;;264.50;251.87;;;;;;;;;;4994209;28;20523;-67
2021/08/07 08:53:13;;;;;;;259.37;247.33;;;;;;;;;;4994044;28;20450;-67
2021/08/07 08:55:42;;;;;;;252.40;240.60;;;;;;;;;;4993892;28;20530;-67
2021/08/07 08:58:09;;;;;;;257.07;245.23;;;;;;;;;;4993932;28;20486;-68
2021/08/07 09:00:36;;;;;;;228.17;217.10;;;;;;;;;;4993548;28;20972;-67
2021/08/07 09:03:03;;;;;;;234.53;223.73;;;;;;;;;;4994641;28;20450;-68
2021/08/07 09:05:31;;;;;;;235.27;224.53;;;;;;;;;;4995545;28;20478;-67
2021/08/07 09:07:58;;;;;;;235.50;224.60;;;;;;;;;;4995833;28;20454;-67
2021/08/07 09:10:25;;;;;;;222.20;211.47;;;;;;;;;;4997010;28;20454;-67
2021/08/07 09:12:56;;;;;;;240.80;229.80;;;;;;;;;;4998157;28;20496;-67
2021/08/07 09:15:27;;;;;;;239.53;228.83;;;;;;;;;;4996496;28;20450;-68
2021/08/07 09:18:09;;;;;;;218.20;208.10;;;;;;;;;;4997283;28;20454;-68
2021/08/07 09:20:36;;;;;;;204.60;195.10;;;;;;;;;;4996575;28;20530;-68
2021/08/07 09:23:04;;;;;;;201.47;192.17;;;;;;;;;;4999777;28;20451;-68
2021/08/07 09:25:34;;;;;;;178.53;170.27;;;;;;;;;;4981785;28;20479;-67
2021/08/07 09:28:03;;;;;;;160.67;153.07;;;;;;;;;;4975440;28;20458;-68
2021/08/07 09:30:32;;;;;;;126.27;120.07;;;;;;;;;;4974041;28;20450;-67
2021/08/07 09:33:00;;;;;;;101.60;96.20;;;;;;;;;;4973971;28;20466;-68
2021/08/07 09:35:27;;;;;;;95.53;90.73;;;;;;;;;;4973604;28;20451;-68
2021/08/07 09:38:09;;;;;;;67.40;63.80;;;;;;;;;;4987935;28;20816;-68
2021/08/07 09:40:40;;;;;;;54.30;51.20;;;;;;;;;;4993361;28;20454;-68
2021/08/07 09:43:08;;;;;;;49.93;47.03;;;;;;;;;;4994242;28;20460;-68
2021/08/07 09:45:36;;;;;;;39.00;36.80;;;;;;;;;;4993341;28;20478;-68
2021/08/07 09:48:05;;;;;;;33.93;31.93;;;;;;;;;;4993506;28;20828;-68
2021/08/07 09:50:33;;;;;;;33.43;31.30;;;;;;;;;;4995048;28;20953;-68
2021/08/07 09:53:01;;;;;;;32.87;30.80;;;;;;;;;;4996182;28;20455;-68
2021/08/07 09:55:29;;;;;;;33.63;31.63;;;;;;;;;;4994679;28;20442;-69
2021/08/07 09:58:04;;;;;;;36.70;34.60;;;;;;;;;;4993176;28;20945;-68
2021/08/07 10:00:36;;;;;;;36.17;34.27;;;;;;;;;;4993342;28;20453;-68
2021/08/07 10:03:18;;;;;;;32.93;30.97;;;;;;;;;;4993825;28;20454;-68
2021/08/07 10:05:45;;;;;;;33.30;31.40;;;;;;;;;;4991647;28;20486;-68
2021/08/07 10:08:13;;;;;;;42.93;40.40;;;;;;;;;;4984956;28;20453;-68
2021/08/07 10:10:40;;;;;;;30.17;28.47;;;;;;;;;;4993428;28;20462;-68
2021/08/07 10:13:07;;;;;;;27.63;25.93;;;;;;;;;;4992899;28;20934;-68
2021/08/07 10:15:34;;;;;;;27.97;26.30;;;;;;;;;;4992717;28;20456;-68
2021/08/07 10:18:03;;;;;;;28.40;26.90;;;;;;;;;;4993300;28;20833;-68
2021/08/07 10:20:30;;;;;;;27.03;25.63;;;;;;;;;;4993305;28;20462;-68
2021/08/07 10:22:58;;;;;;;23.77;22.37;;;;;;;;;;4993142;28;20471;-68
2021/08/07 10:25:25;;;;;;;27.43;25.87;;;;;;;;;;4995085;28;20494;-68
2021/08/07 10:27:53;;;;;;;27.60;26.00;;;;;;;;;;4989197;28;20462;-68
2021/08/07 10:30:22;;;;;;;28.33;26.73;;;;;;;;;;4976337;28;20455;-68
2021/08/07 10:32:49;;;;;;;28.80;27.20;;;;;;;;;;4977301;28;20509;-68
2021/08/07 10:35:18;;;;;;;29.03;27.33;;;;;;;;;;4978261;28;20453;-68
2021/08/07 10:37:45;;;;;;;26.40;24.90;;;;;;;;;;4976598;28;20465;-68
2021/08/07 10:40:13;;;;;;;31.43;29.67;;;;;;;;;;4977188;28;20454;-68
2021/08/07 10:42:40;;;;;;;34.30;32.40;;;;;;;;;;4980489;28;20470;-68
2021/08/07 10:45:08;;;;;;;33.27;31.43;;;;;;;;;;4997447;28;20493;-68
2021/08/07 10:47:36;;;;;;;31.10;29.20;;;;;;;;;;4997375;28;20446;-68
2021/08/07 10:50:23;;;;;;;32.90;31.10;;;;;;;;;;4996901;28;20446;-68
2021/08/07 10:52:51;;;;;;;28.70;27.10;;;;;;;;;;4975942;28;20497;-68
2021/08/07 10:55:33;;;;;;;27.60;25.80;;;;;;;;;;4976115;28;20916;-68
2021/08/07 10:58:00;;;;;;;29.43;27.73;;;;;;;;;;4984267;28;20446;-68
2021/08/07 11:00:28;;;;;;;28.17;26.47;;;;;;;;;;4994972;28;20443;-68
2021/08/07 11:03:14;;;;;;;27.17;25.37;;;;;;;;;;4994831;28;20472;-68
2021/08/07 11:05:51;;;;;;;25.53;24.07;;;;;;;;;;4995143;28;20493;-68
2021/08/07 11:08:20;;;;;;;25.53;24.03;;;;;;;;;;4995137;28;20449;-68
2021/08/07 11:10:47;;;;;;;23.97;22.57;;;;;;;;;;4994340;28;20454;-68
2021/08/07 11:13:24;;;;;;;25.40;23.90;;;;;;;;;;4995123;28;20989;-67
2021/08/07 11:16:06;;;;;;;24.47;23.07;;;;;;;;;;4994940;28;21000;-68
2021/08/07 11:18:33;;;;;;;24.67;23.27;;;;;;;;;;4994530;28;20457;-68
2021/08/07 11:21:00;;;;;;;21.50;20.40;;;;;;;;;;4994626;28;20466;-68
2021/08/07 11:23:37;;;;;;;27.10;25.40;;;;;;;;;;4994647;28;20450;-68
2021/08/07 11:26:07;;;;;;;26.20;24.70;;;;;;;;;;4994247;28;21059;-68
2021/08/07 11:28:55;;;;;;;23.37;21.97;;;;;;;;;;4994219;28;20529;-69
2021/08/07 11:31:25;;;;;;;26.53;24.90;;;;;;;;;;4995522;28;20485;-68
2021/08/07 11:34:11;;;;;;;26.20;24.70;;;;;;;;;;4995902;28;20552;-68
2021/08/07 11:36:58;;;;;;;25.87;24.33;;;;;;;;;;4995347;28;20981;-68
2021/08/07 11:39:26;;;;;;;25.60;24.20;;;;;;;;;;4995056;28;20461;-68
2021/08/07 11:41:53;;;;;;;25.67;24.10;;;;;;;;;;4993684;28;20485;-68
2021/08/07 11:44:21;;;;;;;31.47;28.80;;;;;;;;;;4994430;28;20454;-68
2021/08/07 11:46:48;;;;;;;25.10;23.57;;;;;;;;;;4994074;28;20496;-68
2021/08/07 11:49:15;;;;;;;24.07;22.87;;;;;;;;;;4994350;28;20462;-68
2021/08/07 11:51:42;;;;;;;25.30;23.70;;;;;;;;;;4992417;28;20487;-68
2021/08/07 11:54:15;;;;;;;25.47;23.90;;;;;;;;;;4994624;28;20458;-70
2021/08/07 11:56:44;;;;;;;25.93;24.60;;;;;;;;;;4995598;28;20456;-67
2021/08/07 11:59:11;;;;;;;20.73;19.63;;;;;;;;;;4976283;28;20466;-67
2021/08/07 12:01:39;;;;;;;21.97;20.70;;;;;;;;;;4990335;28;20466;-67
2021/08/07 12:04:07;;;;;;;21.30;20.10;;;;;;;;;;4994230;28;20490;-68
2021/08/07 12:06:35;;;;;;;21.70;20.50;;;;;;;;;;4994118;28;20522;-69
2021/08/07 12:09:04;;;;;;;21.43;20.30;;;;;;;;;;4986528;28;20482;-69
2021/08/07 12:11:31;;;;;;;22.50;21.30;;;;;;;;;;4978949;28;20561;-68
2021/08/07 12:14:00;;;;;;;23.30;21.63;;;;;;;;;;4994563;28;21141;-69
2021/08/07 12:16:28;;;;;;;22.23;21.00;;;;;;;;;;4978011;28;20935;-69
2021/08/07 12:18:57;;;;;;;22.47;21.27;;;;;;;;;;4994844;28;20548;-69
2021/08/07 12:21:29;;;;;;;22.43;21.20;;;;;;;;;;4992531;28;20478;-69
2021/08/07 12:23:56;;;;;;;22.03;20.83;;;;;;;;;;4986169;28;20463;-69
2021/08/07 12:26:24;;;;;;;21.63;20.53;;;;;;;;;;4974452;28;20495;-68
2021/08/07 12:28:56;;;;;;;22.07;20.77;;;;;;;;;;4986369;28;20450;-69
2021/08/07 12:31:25;;;;;;;21.70;20.60;;;;;;;;;;4988626;28;20478;-68
2021/08/07 12:33:52;;;;;;;22.43;21.23;;;;;;;;;;4992860;28;20451;-68
2021/08/07 12:36:20;;;;;;;22.30;21.10;;;;;;;;;;4993810;28;20451;-68
2021/08/07 12:38:48;;;;;;;22.43;21.27;;;;;;;;;;4991545;28;20971;-68
2021/08/07 12:41:16;;;;;;;22.13;21.03;;;;;;;;;;4991494;28;20481;-68
2021/08/07 12:43:43;;;;;;;23.47;22.27;;;;;;;;;;4992195;28;20459;-68
2021/08/07 12:46:12;;;;;;;24.00;22.60;;;;;;;;;;4994406;28;20608;-68
2021/08/07 12:48:51;;;;;;;24.17;22.87;;;;;;;;;;4988173;28;20470;-68
2021/08/07 12:51:22;;;;;;;24.40;23.10;;;;;;;;;;4974053;28;20485;-68
2021/08/07 12:53:50;;;;;;;25.47;24.17;;;;;;;;;;4975260;28;20454;-68
2021/08/07 12:56:17;;;;;;;25.80;24.50;;;;;;;;;;4975453;28;20451;-68
2021/08/07 12:58:58;;;;;;;24.90;23.57;;;;;;;;;;4983156;28;20463;-69
2021/08/07 13:01:25;;;;;;;24.80;23.50;;;;;;;;;;4997479;28;20489;-68
2021/08/07 13:03:55;;;;;;;24.77;23.47;;;;;;;;;;4993716;28;20447;-68
2021/08/07 13:06:22;;;;;;;23.93;22.73;;;;;;;;;;4993278;28;20489;-69
2021/08/07 13:08:49;;;;;;;23.97;22.60;;;;;;;;;;4985647;28;20460;-69
2021/08/07 13:11:17;;;;;;;23.90;22.57;;;;;;;;;;4973091;28;20484;-69
2021/08/07 13:13:45;;;;;;;24.20;23.00;;;;;;;;;;4973271;28;20451;-69
2021/08/07 13:16:12;;;;;;;24.70;23.40;;;;;;;;;;4973386;28;20458;-69
2021/08/07 13:18:40;;;;;;;24.00;22.70;;;;;;;;;;4977613;28;20541;-68
2021/08/07 13:21:22;;;;;;;25.00;23.70;;;;;;;;;;4994101;28;20471;-68
2021/08/07 13:23:51;;;;;;;26.43;24.83;;;;;;;;;;4993863;28;20423;-68
2021/08/07 13:26:18;;;;;;;26.80;25.30;;;;;;;;;;4993590;28;20497;-68
2021/08/07 13:28:45;;;;;;;27.73;26.10;;;;;;;;;;4993290;28;20458;-68
2021/08/07 13:31:12;;;;;;;27.40;25.80;;;;;;;;;;4993742;28;20481;-68
2021/08/07 13:33:39;;;;;;;28.60;27.10;;;;;;;;;;4991959;28;20946;-69
2021/08/07 13:36:06;;;;;;;29.33;27.67;;;;;;;;;;4992782;28;20458;-69
2021/08/07 13:38:34;;;;;;;30.47;28.77;;;;;;;;;;4992768;28;20450;-68
2021/08/07 13:41:06;;;;;;;30.60;28.90;;;;;;;;;;4991391;28;20506;-68
2021/08/07 13:43:34;;;;;;;31.17;29.10;;;;;;;;;;4993704;28;20965;-69
2021/08/07 13:46:01;;;;;;;29.63;28.00;;;;;;;;;;4994406;28;20478;-69
2021/08/07 13:48:28;;;;;;;30.30;28.60;;;;;;;;;;4994677;28;20860;-69
2021/08/07 13:50:55;;;;;;;30.10;28.30;;;;;;;;;;4994997;28;20466;-68
2021/08/07 13:53:22;;;;;;;31.10;29.30;;;;;;;;;;4995281;28;20480;-69
2021/08/07 13:55:49;;;;;;;30.60;28.80;;;;;;;;;;4995347;28;20457;-69
2021/08/07 13:58:18;;;;;;;30.27;28.47;;;;;;;;;;4993601;28;20469;-69
2021/08/07 14:00:45;;;;;;;30.60;28.80;;;;;;;;;;4995999;28;20537;-68
2021/08/07 14:03:14;;;;;;;30.30;28.50;;;;;;;;;;4997775;28;20450;-69
2021/08/07 14:05:41;;;;;;;30.50;28.70;;;;;;;;;;4996834;28;20549;-69
2021/08/07 14:08:08;;;;;;;30.97;28.70;;;;;;;;;;4998511;28;20517;-69
2021/08/07 14:10:37;;;;;;;29.63;27.90;;;;;;;;;;4997240;28;20454;-68